sensor_id;sensor_type;location;lat;lon;timestamp;P1;durP1;ratioP1;P2;durP2;ratioP2
58338;SDS011;68636;52.704;6.536;2023-09-19T00:00:13;14.38;;;1.20;;
58338;SDS011;68636;52.704;6.536;2023-09-19T00:02:39;14.13;;;1.10;;
58338;SDS011;68636;52.704;6.536;2023-09-19T00:05:05;17.30;;;1.57;;
58338;SDS011;68636;52.704;6.536;2023-09-19T00:07:33;15.50;;;1.42;;
58338;SDS011;68636;52.704;6.536;2023-09-19T00:10:01;14.20;;;1.30;;
58338;SDS011;68636;52.704;6.536;2023-09-19T00:12:28;16.13;;;1.87;;
58338;SDS011;68636;52.704;6.536;2023-09-19T00:14:54;18.70;;;1.60;;
58338;SDS011;68636;52.704;6.536;2023-09-19T00:17:21;28.27;;;2.30;;
58338;SDS011;68636;52.704;6.536;2023-09-19T00:19:47;19.00;;;2.05;;
58338;SDS011;68636;52.704;6.536;2023-09-19T00:22:13;16.90;;;1.67;;
58338;SDS011;68636;52.704;6.536;2023-09-19T00:24:41;19.75;;;1.85;;
58338;SDS011;68636;52.704;6.536;2023-09-19T00:27:07;20.85;;;2.20;;
58338;SDS011;68636;52.704;6.536;2023-09-19T00:29:33;17.67;;;2.83;;
58338;SDS011;68636;52.704;6.536;2023-09-19T00:31:59;27.27;;;3.53;;
58338;SDS011;68636;52.704;6.536;2023-09-19T00:34:28;23.75;;;4.45;;
58338;SDS011;68636;52.704;6.536;2023-09-19T00:36:54;22.52;;;3.38;;
58338;SDS011;68636;52.704;6.536;2023-09-19T00:39:20;32.60;;;3.93;;
58338;SDS011;68636;52.704;6.536;2023-09-19T00:41:47;23.05;;;2.88;;
58338;SDS011;68636;52.704;6.536;2023-09-19T00:44:13;22.50;;;3.20;;
58338;SDS011;68636;52.704;6.536;2023-09-19T00:46:40;22.05;;;2.80;;
58338;SDS011;68636;52.704;6.536;2023-09-19T00:49:07;19.02;;;2.83;;
58338;SDS011;68636;52.704;6.536;2023-09-19T00:54:01;17.92;;;2.67;;
58338;SDS011;68636;52.704;6.536;2023-09-19T00:56:29;26.35;;;3.38;;
58338;SDS011;68636;52.704;6.536;2023-09-19T00:58:55;27.60;;;2.70;;
58338;SDS011;68636;52.704;6.536;2023-09-19T01:01:21;21.65;;;3.22;;
58338;SDS011;68636;52.704;6.536;2023-09-19T01:03:47;19.23;;;3.93;;
58338;SDS011;68636;52.704;6.536;2023-09-19T01:06:13;24.43;;;2.90;;
58338;SDS011;68636;52.704;6.536;2023-09-19T01:08:39;25.13;;;2.67;;
58338;SDS011;68636;52.704;6.536;2023-09-19T01:13:51;24.98;;;3.22;;
58338;SDS011;68636;52.704;6.536;2023-09-19T01:26:26;24.08;;;3.83;;
58338;SDS011;68636;52.704;6.536;2023-09-19T01:31:44;28.50;;;4.93;;
58338;SDS011;68636;52.704;6.536;2023-09-19T01:34:11;19.70;;;4.13;;
58338;SDS011;68636;52.704;6.536;2023-09-19T01:36:38;28.25;;;4.47;;
58338;SDS011;68636;52.704;6.536;2023-09-19T01:39:04;25.42;;;4.85;;
58338;SDS011;68636;52.704;6.536;2023-09-19T01:41:41;23.13;;;4.40;;
58338;SDS011;68636;52.704;6.536;2023-09-19T01:44:09;25.13;;;4.60;;
58338;SDS011;68636;52.704;6.536;2023-09-19T01:46:39;20.90;;;3.97;;
58338;SDS011;68636;52.704;6.536;2023-09-19T01:49:22;27.38;;;4.28;;
58338;SDS011;68636;52.704;6.536;2023-09-19T01:52:13;24.77;;;3.97;;
58338;SDS011;68636;52.704;6.536;2023-09-19T01:54:46;35.45;;;4.45;;
58338;SDS011;68636;52.704;6.536;2023-09-19T01:57:16;27.70;;;3.92;;
58338;SDS011;68636;52.704;6.536;2023-09-19T01:59:45;20.00;;;3.05;;
58338;SDS011;68636;52.704;6.536;2023-09-19T02:02:14;22.00;;;3.95;;
58338;SDS011;68636;52.704;6.536;2023-09-19T02:04:40;28.20;;;4.03;;
58338;SDS011;68636;52.704;6.536;2023-09-19T02:07:06;23.40;;;3.63;;
58338;SDS011;68636;52.704;6.536;2023-09-19T02:09:33;21.38;;;3.33;;
58338;SDS011;68636;52.704;6.536;2023-09-19T02:14:27;31.92;;;3.50;;
58338;SDS011;68636;52.704;6.536;2023-09-19T02:16:54;29.95;;;4.20;;
58338;SDS011;68636;52.704;6.536;2023-09-19T02:19:21;28.90;;;4.13;;
58338;SDS011;68636;52.704;6.536;2023-09-19T02:21:47;29.65;;;4.50;;
58338;SDS011;68636;52.704;6.536;2023-09-19T02:24:14;24.33;;;2.95;;
58338;SDS011;68636;52.704;6.536;2023-09-19T02:26:40;18.98;;;4.22;;
58338;SDS011;68636;52.704;6.536;2023-09-19T02:29:07;25.53;;;4.30;;
58338;SDS011;68636;52.704;6.536;2023-09-19T02:31:33;20.50;;;3.40;;
58338;SDS011;68636;52.704;6.536;2023-09-19T02:33:59;27.98;;;3.85;;
58338;SDS011;68636;52.704;6.536;2023-09-19T02:36:25;22.55;;;3.47;;
58338;SDS011;68636;52.704;6.536;2023-09-19T02:38:51;24.90;;;3.55;;
58338;SDS011;68636;52.704;6.536;2023-09-19T02:41:18;24.60;;;3.53;;
58338;SDS011;68636;52.704;6.536;2023-09-19T02:43:44;17.52;;;3.90;;
58338;SDS011;68636;52.704;6.536;2023-09-19T02:46:10;19.42;;;3.08;;
58338;SDS011;68636;52.704;6.536;2023-09-19T02:48:36;22.25;;;3.35;;
58338;SDS011;68636;52.704;6.536;2023-09-19T02:51:03;20.15;;;3.22;;
58338;SDS011;68636;52.704;6.536;2023-09-19T02:53:30;20.05;;;3.50;;
58338;SDS011;68636;52.704;6.536;2023-09-19T02:55:57;26.13;;;4.00;;
58338;SDS011;68636;52.704;6.536;2023-09-19T03:00:50;20.75;;;3.75;;
58338;SDS011;68636;52.704;6.536;2023-09-19T03:03:16;14.40;;;2.93;;
58338;SDS011;68636;52.704;6.536;2023-09-19T03:05:43;24.92;;;4.13;;
58338;SDS011;68636;52.704;6.536;2023-09-19T03:08:13;23.15;;;3.30;;
58338;SDS011;68636;52.704;6.536;2023-09-19T03:10:42;22.17;;;3.08;;
58338;SDS011;68636;52.704;6.536;2023-09-19T03:13:08;15.43;;;2.20;;
58338;SDS011;68636;52.704;6.536;2023-09-19T03:15:35;19.42;;;2.70;;
58338;SDS011;68636;52.704;6.536;2023-09-19T03:18:04;17.70;;;3.40;;
58338;SDS011;68636;52.704;6.536;2023-09-19T03:20:31;13.32;;;2.78;;
58338;SDS011;68636;52.704;6.536;2023-09-19T03:22:57;31.23;;;3.20;;
58338;SDS011;68636;52.704;6.536;2023-09-19T03:25:23;20.35;;;4.30;;
58338;SDS011;68636;52.704;6.536;2023-09-19T03:27:49;15.88;;;2.35;;
58338;SDS011;68636;52.704;6.536;2023-09-19T03:30:16;21.57;;;3.77;;
58338;SDS011;68636;52.704;6.536;2023-09-19T03:32:45;24.80;;;3.83;;
58338;SDS011;68636;52.704;6.536;2023-09-19T03:35:12;18.00;;;3.72;;
58338;SDS011;68636;52.704;6.536;2023-09-19T03:37:42;26.27;;;4.05;;
58338;SDS011;68636;52.704;6.536;2023-09-19T03:40:09;16.75;;;3.10;;
58338;SDS011;68636;52.704;6.536;2023-09-19T03:42:39;24.05;;;3.60;;
58338;SDS011;68636;52.704;6.536;2023-09-19T03:45:06;29.58;;;3.25;;
58338;SDS011;68636;52.704;6.536;2023-09-19T03:47:34;25.50;;;3.30;;
58338;SDS011;68636;52.704;6.536;2023-09-19T03:52:28;27.52;;;3.50;;
58338;SDS011;68636;52.704;6.536;2023-09-19T03:54:54;30.77;;;4.88;;
58338;SDS011;68636;52.704;6.536;2023-09-19T03:57:20;25.43;;;3.87;;
58338;SDS011;68636;52.704;6.536;2023-09-19T03:59:46;18.73;;;3.43;;
58338;SDS011;68636;52.704;6.536;2023-09-19T04:02:13;17.57;;;3.53;;
58338;SDS011;68636;52.704;6.536;2023-09-19T04:04:50;17.92;;;3.03;;
58338;SDS011;68636;52.704;6.536;2023-09-19T04:07:17;28.45;;;4.38;;
58338;SDS011;68636;52.704;6.536;2023-09-19T04:09:44;30.48;;;3.78;;
58338;SDS011;68636;52.704;6.536;2023-09-19T04:12:11;31.95;;;3.65;;
58338;SDS011;68636;52.704;6.536;2023-09-19T04:14:37;31.40;;;3.63;;
58338;SDS011;68636;52.704;6.536;2023-09-19T04:17:04;25.77;;;4.00;;
58338;SDS011;68636;52.704;6.536;2023-09-19T04:19:30;25.88;;;4.15;;
58338;SDS011;68636;52.704;6.536;2023-09-19T04:21:56;23.90;;;3.50;;
58338;SDS011;68636;52.704;6.536;2023-09-19T04:24:22;32.00;;;3.95;;
58338;SDS011;68636;52.704;6.536;2023-09-19T04:26:48;24.88;;;3.80;;
58338;SDS011;68636;52.704;6.536;2023-09-19T04:29:14;25.77;;;4.07;;
58338;SDS011;68636;52.704;6.536;2023-09-19T04:31:40;25.77;;;3.63;;
58338;SDS011;68636;52.704;6.536;2023-09-19T04:34:08;23.60;;;3.55;;
58338;SDS011;68636;52.704;6.536;2023-09-19T04:36:35;24.95;;;3.30;;
58338;SDS011;68636;52.704;6.536;2023-09-19T04:39:04;29.13;;;3.40;;
58338;SDS011;68636;52.704;6.536;2023-09-19T04:41:30;23.03;;;3.20;;
58338;SDS011;68636;52.704;6.536;2023-09-19T04:43:57;21.37;;;4.10;;
58338;SDS011;68636;52.704;6.536;2023-09-19T04:46:23;30.92;;;3.20;;
58338;SDS011;68636;52.704;6.536;2023-09-19T04:48:49;34.47;;;3.83;;
58338;SDS011;68636;52.704;6.536;2023-09-19T04:51:15;31.23;;;3.60;;
58338;SDS011;68636;52.704;6.536;2023-09-19T04:53:44;25.98;;;3.97;;
58338;SDS011;68636;52.704;6.536;2023-09-19T04:56:10;20.30;;;3.60;;
58338;SDS011;68636;52.704;6.536;2023-09-19T04:58:36;29.08;;;3.92;;
58338;SDS011;68636;52.704;6.536;2023-09-19T05:01:02;29.58;;;4.28;;
58338;SDS011;68636;52.704;6.536;2023-09-19T05:03:28;30.92;;;3.05;;
58338;SDS011;68636;52.704;6.536;2023-09-19T05:05:54;26.27;;;3.23;;
58338;SDS011;68636;52.704;6.536;2023-09-19T05:08:20;29.05;;;3.17;;
58338;SDS011;68636;52.704;6.536;2023-09-19T05:10:47;28.88;;;3.53;;
58338;SDS011;68636;52.704;6.536;2023-09-19T05:13:14;31.58;;;3.42;;
58338;SDS011;68636;52.704;6.536;2023-09-19T05:15:40;25.08;;;3.13;;
58338;SDS011;68636;52.704;6.536;2023-09-19T05:18:06;27.50;;;2.85;;
58338;SDS011;68636;52.704;6.536;2023-09-19T05:20:32;19.77;;;2.63;;
58338;SDS011;68636;52.704;6.536;2023-09-19T05:23:01;32.53;;;3.45;;
58338;SDS011;68636;52.704;6.536;2023-09-19T05:25:31;23.27;;;2.95;;
58338;SDS011;68636;52.704;6.536;2023-09-19T05:27:58;28.90;;;3.90;;
58338;SDS011;68636;52.704;6.536;2023-09-19T05:30:25;23.90;;;2.90;;
58338;SDS011;68636;52.704;6.536;2023-09-19T05:32:55;23.10;;;2.70;;
58338;SDS011;68636;52.704;6.536;2023-09-19T05:35:22;25.63;;;3.13;;
58338;SDS011;68636;52.704;6.536;2023-09-19T05:37:52;37.60;;;4.47;;
58338;SDS011;68636;52.704;6.536;2023-09-19T05:40:18;25.35;;;3.70;;
58338;SDS011;68636;52.704;6.536;2023-09-19T05:42:45;20.40;;;2.80;;
58338;SDS011;68636;52.704;6.536;2023-09-19T05:45:11;20.30;;;2.05;;
58338;SDS011;68636;52.704;6.536;2023-09-19T05:47:38;26.38;;;2.90;;
58338;SDS011;68636;52.704;6.536;2023-09-19T05:50:05;24.15;;;3.25;;
58338;SDS011;68636;52.704;6.536;2023-09-19T05:52:34;30.05;;;3.00;;
58338;SDS011;68636;52.704;6.536;2023-09-19T05:55:00;31.52;;;3.78;;
58338;SDS011;68636;52.704;6.536;2023-09-19T05:57:26;25.33;;;4.00;;
58338;SDS011;68636;52.704;6.536;2023-09-19T05:59:52;24.52;;;2.50;;
58338;SDS011;68636;52.704;6.536;2023-09-19T06:02:18;27.02;;;3.88;;
58338;SDS011;68636;52.704;6.536;2023-09-19T06:04:45;27.93;;;3.43;;
58338;SDS011;68636;52.704;6.536;2023-09-19T06:07:11;29.77;;;3.35;;
58338;SDS011;68636;52.704;6.536;2023-09-19T06:09:37;28.17;;;2.70;;
58338;SDS011;68636;52.704;6.536;2023-09-19T06:12:03;34.50;;;3.78;;
58338;SDS011;68636;52.704;6.536;2023-09-19T06:14:30;22.88;;;3.05;;
58338;SDS011;68636;52.704;6.536;2023-09-19T06:16:56;24.60;;;3.17;;
58338;SDS011;68636;52.704;6.536;2023-09-19T06:19:23;23.42;;;2.78;;
58338;SDS011;68636;52.704;6.536;2023-09-19T06:21:51;25.33;;;3.15;;
58338;SDS011;68636;52.704;6.536;2023-09-19T06:24:19;30.52;;;4.18;;
58338;SDS011;68636;52.704;6.536;2023-09-19T06:26:46;25.25;;;3.47;;
58338;SDS011;68636;52.704;6.536;2023-09-19T06:29:12;21.50;;;2.47;;
58338;SDS011;68636;52.704;6.536;2023-09-19T06:31:39;24.00;;;2.67;;
58338;SDS011;68636;52.704;6.536;2023-09-19T06:34:05;28.35;;;4.13;;
58338;SDS011;68636;52.704;6.536;2023-09-19T06:36:32;21.27;;;2.90;;
58338;SDS011;68636;52.704;6.536;2023-09-19T06:38:58;24.80;;;2.75;;
58338;SDS011;68636;52.704;6.536;2023-09-19T06:41:24;20.37;;;2.33;;
58338;SDS011;68636;52.704;6.536;2023-09-19T06:43:50;23.33;;;2.22;;
58338;SDS011;68636;52.704;6.536;2023-09-19T06:46:18;15.20;;;2.20;;
58338;SDS011;68636;52.704;6.536;2023-09-19T06:48:44;30.60;;;2.80;;
58338;SDS011;68636;52.704;6.536;2023-09-19T06:51:12;22.02;;;3.50;;
58338;SDS011;68636;52.704;6.536;2023-09-19T06:53:41;19.33;;;2.75;;
58338;SDS011;68636;52.704;6.536;2023-09-19T06:56:07;20.25;;;2.28;;
58338;SDS011;68636;52.704;6.536;2023-09-19T06:58:33;24.27;;;3.65;;
58338;SDS011;68636;52.704;6.536;2023-09-19T07:01:01;27.95;;;2.67;;
58338;SDS011;68636;52.704;6.536;2023-09-19T07:03:28;21.17;;;2.67;;
58338;SDS011;68636;52.704;6.536;2023-09-19T07:05:54;23.70;;;2.45;;
58338;SDS011;68636;52.704;6.536;2023-09-19T07:08:21;21.83;;;2.63;;
58338;SDS011;68636;52.704;6.536;2023-09-19T07:10:47;21.23;;;3.07;;
58338;SDS011;68636;52.704;6.536;2023-09-19T07:13:13;24.50;;;2.80;;
58338;SDS011;68636;52.704;6.536;2023-09-19T07:15:42;28.90;;;2.90;;
58338;SDS011;68636;52.704;6.536;2023-09-19T07:18:15;25.70;;;2.88;;
58338;SDS011;68636;52.704;6.536;2023-09-19T07:20:42;18.13;;;2.75;;
58338;SDS011;68636;52.704;6.536;2023-09-19T07:23:15;29.48;;;3.28;;
58338;SDS011;68636;52.704;6.536;2023-09-19T07:25:41;17.30;;;2.90;;
58338;SDS011;68636;52.704;6.536;2023-09-19T07:28:07;34.60;;;3.90;;
58338;SDS011;68636;52.704;6.536;2023-09-19T07:30:35;31.63;;;2.92;;
58338;SDS011;68636;52.704;6.536;2023-09-19T07:33:02;38.22;;;2.72;;
58338;SDS011;68636;52.704;6.536;2023-09-19T07:35:30;33.03;;;2.97;;
58338;SDS011;68636;52.704;6.536;2023-09-19T07:37:56;24.77;;;1.90;;
58338;SDS011;68636;52.704;6.536;2023-09-19T07:40:26;22.98;;;2.92;;
58338;SDS011;68636;52.704;6.536;2023-09-19T07:42:56;20.70;;;2.55;;
58338;SDS011;68636;52.704;6.536;2023-09-19T07:45:26;21.02;;;2.53;;
58338;SDS011;68636;52.704;6.536;2023-09-19T07:47:52;25.63;;;2.25;;
58338;SDS011;68636;52.704;6.536;2023-09-19T07:50:19;21.52;;;2.20;;
58338;SDS011;68636;52.704;6.536;2023-09-19T07:52:46;26.45;;;3.03;;
58338;SDS011;68636;52.704;6.536;2023-09-19T07:55:12;22.00;;;2.80;;
58338;SDS011;68636;52.704;6.536;2023-09-19T07:57:42;26.67;;;2.67;;
58338;SDS011;68636;52.704;6.536;2023-09-19T08:00:09;28.73;;;2.60;;
58338;SDS011;68636;52.704;6.536;2023-09-19T08:02:35;26.63;;;2.22;;
58338;SDS011;68636;52.704;6.536;2023-09-19T08:05:03;25.58;;;3.47;;
58338;SDS011;68636;52.704;6.536;2023-09-19T08:07:36;22.10;;;2.65;;
58338;SDS011;68636;52.704;6.536;2023-09-19T08:10:05;21.83;;;2.25;;
58338;SDS011;68636;52.704;6.536;2023-09-19T08:12:42;35.38;;;3.45;;
58338;SDS011;68636;52.704;6.536;2023-09-19T08:15:18;23.63;;;3.10;;
58338;SDS011;68636;52.704;6.536;2023-09-19T08:17:45;29.27;;;3.00;;
58338;SDS011;68636;52.704;6.536;2023-09-19T08:20:11;30.42;;;2.83;;
58338;SDS011;68636;52.704;6.536;2023-09-19T08:22:43;23.55;;;2.33;;
58338;SDS011;68636;52.704;6.536;2023-09-19T08:25:11;30.23;;;3.40;;
58338;SDS011;68636;52.704;6.536;2023-09-19T08:27:37;22.90;;;2.72;;
58338;SDS011;68636;52.704;6.536;2023-09-19T08:30:03;35.17;;;3.30;;
58338;SDS011;68636;52.704;6.536;2023-09-19T08:32:30;21.33;;;2.63;;
58338;SDS011;68636;52.704;6.536;2023-09-19T08:34:56;35.17;;;2.80;;
58338;SDS011;68636;52.704;6.536;2023-09-19T08:37:22;21.53;;;2.77;;
58338;SDS011;68636;52.704;6.536;2023-09-19T08:39:48;29.15;;;3.67;;
58338;SDS011;68636;52.704;6.536;2023-09-19T08:42:14;29.23;;;3.60;;
58338;SDS011;68636;52.704;6.536;2023-09-19T08:44:41;20.75;;;2.50;;
58338;SDS011;68636;52.704;6.536;2023-09-19T08:47:14;30.50;;;3.70;;
58338;SDS011;68636;52.704;6.536;2023-09-19T08:49:50;24.90;;;2.65;;
58338;SDS011;68636;52.704;6.536;2023-09-19T08:52:28;26.67;;;3.55;;
58338;SDS011;68636;52.704;6.536;2023-09-19T08:54:57;25.25;;;3.42;;
58338;SDS011;68636;52.704;6.536;2023-09-19T08:57:28;29.80;;;2.85;;
58338;SDS011;68636;52.704;6.536;2023-09-19T08:59:55;26.35;;;3.55;;
58338;SDS011;68636;52.704;6.536;2023-09-19T09:02:21;29.48;;;3.15;;
58338;SDS011;68636;52.704;6.536;2023-09-19T09:07:14;24.45;;;2.83;;
58338;SDS011;68636;52.704;6.536;2023-09-19T09:09:41;24.77;;;3.05;;
58338;SDS011;68636;52.704;6.536;2023-09-19T09:14:34;31.05;;;3.05;;
58338;SDS011;68636;52.704;6.536;2023-09-19T09:17:00;22.60;;;3.20;;
58338;SDS011;68636;52.704;6.536;2023-09-19T09:19:27;25.05;;;2.28;;
58338;SDS011;68636;52.704;6.536;2023-09-19T09:21:54;33.60;;;3.70;;
58338;SDS011;68636;52.704;6.536;2023-09-19T09:24:29;29.50;;;3.23;;
58338;SDS011;68636;52.704;6.536;2023-09-19T09:26:58;21.00;;;2.20;;
58338;SDS011;68636;52.704;6.536;2023-09-19T09:29:41;19.13;;;2.33;;
58338;SDS011;68636;52.704;6.536;2023-09-19T09:32:17;29.50;;;2.88;;
58338;SDS011;68636;52.704;6.536;2023-09-19T09:37:14;33.85;;;2.67;;
58338;SDS011;68636;52.704;6.536;2023-09-19T09:39:40;21.55;;;2.58;;
58338;SDS011;68636;52.704;6.536;2023-09-19T09:42:29;25.98;;;3.55;;
58338;SDS011;68636;52.704;6.536;2023-09-19T09:47:43;30.35;;;3.53;;
58338;SDS011;68636;52.704;6.536;2023-09-19T09:50:38;24.90;;;3.50;;
58338;SDS011;68636;52.704;6.536;2023-09-19T09:53:26;27.35;;;3.00;;
58338;SDS011;68636;52.704;6.536;2023-09-19T09:56:11;34.72;;;3.30;;
58338;SDS011;68636;52.704;6.536;2023-09-19T09:58:57;41.92;;;4.50;;
58338;SDS011;68636;52.704;6.536;2023-09-19T10:01:24;24.85;;;3.53;;
58338;SDS011;68636;52.704;6.536;2023-09-19T10:04:00;24.17;;;3.80;;
58338;SDS011;68636;52.704;6.536;2023-09-19T10:06:27;30.02;;;4.55;;
58338;SDS011;68636;52.704;6.536;2023-09-19T10:09:12;36.72;;;5.53;;
58338;SDS011;68636;52.704;6.536;2023-09-19T10:11:45;32.30;;;4.53;;
58338;SDS011;68636;52.704;6.536;2023-09-19T10:14:12;28.17;;;4.43;;
58338;SDS011;68636;52.704;6.536;2023-09-19T10:16:40;24.05;;;4.18;;
58338;SDS011;68636;52.704;6.536;2023-09-19T10:19:07;31.08;;;4.97;;
58338;SDS011;68636;52.704;6.536;2023-09-19T10:21:34;33.78;;;4.70;;
58338;SDS011;68636;52.704;6.536;2023-09-19T10:24:03;34.55;;;5.47;;
58338;SDS011;68636;52.704;6.536;2023-09-19T10:26:32;26.88;;;4.60;;
58338;SDS011;68636;52.704;6.536;2023-09-19T10:29:01;31.08;;;4.53;;
58338;SDS011;68636;52.704;6.536;2023-09-19T10:31:28;32.08;;;4.10;;
58338;SDS011;68636;52.704;6.536;2023-09-19T10:33:55;32.28;;;4.10;;
58338;SDS011;68636;52.704;6.536;2023-09-19T10:36:24;31.88;;;4.15;;
58338;SDS011;68636;52.704;6.536;2023-09-19T10:38:51;23.15;;;4.00;;
58338;SDS011;68636;52.704;6.536;2023-09-19T10:41:20;35.03;;;4.45;;
58338;SDS011;68636;52.704;6.536;2023-09-19T10:43:47;20.80;;;3.22;;
58338;SDS011;68636;52.704;6.536;2023-09-19T10:46:14;28.92;;;4.53;;
58338;SDS011;68636;52.704;6.536;2023-09-19T10:48:40;24.08;;;3.42;;
58338;SDS011;68636;52.704;6.536;2023-09-19T10:51:10;29.83;;;4.90;;
58338;SDS011;68636;52.704;6.536;2023-09-19T10:56:16;29.25;;;3.58;;
58338;SDS011;68636;52.704;6.536;2023-09-19T10:58:43;33.72;;;3.67;;
58338;SDS011;68636;52.704;6.536;2023-09-19T11:01:10;30.70;;;3.05;;
58338;SDS011;68636;52.704;6.536;2023-09-19T11:03:40;28.08;;;3.63;;
58338;SDS011;68636;52.704;6.536;2023-09-19T11:11:45;29.73;;;4.18;;
58338;SDS011;68636;52.704;6.536;2023-09-19T11:20:14;23.20;;;3.17;;
58338;SDS011;68636;52.704;6.536;2023-09-19T11:24:39;29.70;;;3.25;;
58338;SDS011;68636;52.704;6.536;2023-09-19T11:27:10;33.25;;;3.60;;
58338;SDS011;68636;52.704;6.536;2023-09-19T11:29:38;21.83;;;3.00;;
58338;SDS011;68636;52.704;6.536;2023-09-19T11:32:05;27.00;;;3.42;;
58338;SDS011;68636;52.704;6.536;2023-09-19T11:39:37;38.70;;;4.03;;
58338;SDS011;68636;52.704;6.536;2023-09-19T11:44:49;20.65;;;2.92;;
58338;SDS011;68636;52.704;6.536;2023-09-19T11:47:17;31.30;;;3.17;;
58338;SDS011;68636;52.704;6.536;2023-09-19T11:49:44;23.45;;;3.15;;
58338;SDS011;68636;52.704;6.536;2023-09-19T11:52:10;37.90;;;4.03;;
58338;SDS011;68636;52.704;6.536;2023-09-19T11:54:39;25.63;;;2.90;;
58338;SDS011;68636;52.704;6.536;2023-09-19T11:57:06;23.80;;;3.88;;
58338;SDS011;68636;52.704;6.536;2023-09-19T11:59:34;29.13;;;3.53;;
58338;SDS011;68636;52.704;6.536;2023-09-19T12:02:04;24.65;;;2.88;;
58338;SDS011;68636;52.704;6.536;2023-09-19T12:07:05;28.88;;;3.45;;
58338;SDS011;68636;52.704;6.536;2023-09-19T12:11:57;24.17;;;3.17;;
58338;SDS011;68636;52.704;6.536;2023-09-19T12:14:23;27.40;;;3.08;;
58338;SDS011;68636;52.704;6.536;2023-09-19T12:16:57;27.23;;;3.65;;
58338;SDS011;68636;52.704;6.536;2023-09-19T12:19:26;29.92;;;3.78;;
58338;SDS011;68636;52.704;6.536;2023-09-19T12:21:54;20.92;;;3.28;;
58338;SDS011;68636;52.704;6.536;2023-09-19T12:24:22;24.70;;;3.45;;
58338;SDS011;68636;52.704;6.536;2023-09-19T12:26:51;23.98;;;3.15;;
58338;SDS011;68636;52.704;6.536;2023-09-19T12:29:19;28.52;;;4.28;;
58338;SDS011;68636;52.704;6.536;2023-09-19T12:31:58;24.70;;;3.40;;
58338;SDS011;68636;52.704;6.536;2023-09-19T12:34:31;22.38;;;3.38;;
58338;SDS011;68636;52.704;6.536;2023-09-19T12:37:10;18.70;;;3.25;;
58338;SDS011;68636;52.704;6.536;2023-09-19T12:39:41;28.70;;;3.75;;
58338;SDS011;68636;52.704;6.536;2023-09-19T12:42:10;20.50;;;3.88;;
58338;SDS011;68636;52.704;6.536;2023-09-19T12:44:42;26.10;;;3.28;;
58338;SDS011;68636;52.704;6.536;2023-09-19T12:47:09;28.13;;;3.40;;
58338;SDS011;68636;52.704;6.536;2023-09-19T12:49:36;28.42;;;4.00;;
58338;SDS011;68636;52.704;6.536;2023-09-19T12:52:02;28.40;;;3.42;;
58338;SDS011;68636;52.704;6.536;2023-09-19T12:54:39;26.30;;;3.22;;
58338;SDS011;68636;52.704;6.536;2023-09-19T12:57:05;24.85;;;3.80;;
58338;SDS011;68636;52.704;6.536;2023-09-19T12:59:31;28.80;;;3.25;;
58338;SDS011;68636;52.704;6.536;2023-09-19T13:02:04;26.52;;;3.55;;
58338;SDS011;68636;52.704;6.536;2023-09-19T13:04:39;27.05;;;4.15;;
58338;SDS011;68636;52.704;6.536;2023-09-19T13:07:06;20.35;;;3.55;;
58338;SDS011;68636;52.704;6.536;2023-09-19T13:09:34;25.33;;;3.35;;
58338;SDS011;68636;52.704;6.536;2023-09-19T13:12:00;31.13;;;3.80;;
58338;SDS011;68636;52.704;6.536;2023-09-19T13:14:27;29.65;;;3.67;;
58338;SDS011;68636;52.704;6.536;2023-09-19T13:19:37;22.48;;;3.13;;
58338;SDS011;68636;52.704;6.536;2023-09-19T13:22:05;32.20;;;3.15;;
58338;SDS011;68636;52.704;6.536;2023-09-19T13:24:33;26.17;;;3.13;;
58338;SDS011;68636;52.704;6.536;2023-09-19T13:27:02;19.52;;;2.85;;
58338;SDS011;68636;52.704;6.536;2023-09-19T13:29:30;15.05;;;2.60;;
58338;SDS011;68636;52.704;6.536;2023-09-19T13:31:56;22.60;;;2.95;;
58338;SDS011;68636;52.704;6.536;2023-09-19T13:34:22;21.08;;;2.75;;
58338;SDS011;68636;52.704;6.536;2023-09-19T13:36:49;18.13;;;2.30;;
58338;SDS011;68636;52.704;6.536;2023-09-19T13:39:16;15.60;;;2.28;;
58338;SDS011;68636;52.704;6.536;2023-09-19T13:41:46;16.20;;;2.25;;
58338;SDS011;68636;52.704;6.536;2023-09-19T13:44:12;21.15;;;2.72;;
58338;SDS011;68636;52.704;6.536;2023-09-19T13:46:39;23.90;;;2.72;;
58338;SDS011;68636;52.704;6.536;2023-09-19T13:49:05;18.23;;;2.45;;
58338;SDS011;68636;52.704;6.536;2023-09-19T13:51:32;18.70;;;2.28;;
58338;SDS011;68636;52.704;6.536;2023-09-19T13:53:58;15.75;;;2.10;;
58338;SDS011;68636;52.704;6.536;2023-09-19T13:56:24;19.20;;;2.67;;
58338;SDS011;68636;52.704;6.536;2023-09-19T13:58:53;16.15;;;1.73;;
58338;SDS011;68636;52.704;6.536;2023-09-19T14:01:19;18.50;;;2.17;;
58338;SDS011;68636;52.704;6.536;2023-09-19T14:03:46;13.15;;;1.65;;
58338;SDS011;68636;52.704;6.536;2023-09-19T14:06:15;22.67;;;2.35;;
58338;SDS011;68636;52.704;6.536;2023-09-19T14:08:41;22.30;;;2.47;;
58338;SDS011;68636;52.704;6.536;2023-09-19T14:11:07;17.98;;;2.42;;
58338;SDS011;68636;52.704;6.536;2023-09-19T14:13:34;17.30;;;2.42;;
58338;SDS011;68636;52.704;6.536;2023-09-19T14:16:03;20.20;;;2.22;;
58338;SDS011;68636;52.704;6.536;2023-09-19T14:18:34;22.30;;;2.50;;
58338;SDS011;68636;52.704;6.536;2023-09-19T14:21:03;16.58;;;2.10;;
58338;SDS011;68636;52.704;6.536;2023-09-19T14:23:36;17.30;;;1.88;;
58338;SDS011;68636;52.704;6.536;2023-09-19T14:26:02;15.50;;;2.20;;
58338;SDS011;68636;52.704;6.536;2023-09-19T14:28:28;18.20;;;2.47;;
58338;SDS011;68636;52.704;6.536;2023-09-19T14:30:55;14.73;;;1.92;;
58338;SDS011;68636;52.704;6.536;2023-09-19T14:33:21;15.23;;;2.15;;
58338;SDS011;68636;52.704;6.536;2023-09-19T14:35:47;16.10;;;1.70;;
58338;SDS011;68636;52.704;6.536;2023-09-19T14:38:14;19.65;;;1.83;;
58338;SDS011;68636;52.704;6.536;2023-09-19T14:40:40;17.73;;;2.20;;
58338;SDS011;68636;52.704;6.536;2023-09-19T14:43:07;19.05;;;2.28;;
58338;SDS011;68636;52.704;6.536;2023-09-19T14:45:35;16.73;;;2.50;;
58338;SDS011;68636;52.704;6.536;2023-09-19T14:48:01;15.73;;;1.95;;
58338;SDS011;68636;52.704;6.536;2023-09-19T14:50:30;15.07;;;1.77;;
58338;SDS011;68636;52.704;6.536;2023-09-19T14:52:56;7.28;;;1.75;;
58338;SDS011;68636;52.704;6.536;2023-09-19T14:55:23;12.55;;;1.80;;
58338;SDS011;68636;52.704;6.536;2023-09-19T14:57:49;13.95;;;2.42;;
58338;SDS011;68636;52.704;6.536;2023-09-19T15:00:16;14.65;;;2.08;;
58338;SDS011;68636;52.704;6.536;2023-09-19T15:02:45;12.43;;;2.13;;
58338;SDS011;68636;52.704;6.536;2023-09-19T15:05:13;13.20;;;1.95;;
58338;SDS011;68636;52.704;6.536;2023-09-19T15:07:40;15.05;;;2.53;;
58338;SDS011;68636;52.704;6.536;2023-09-19T15:10:07;13.18;;;2.20;;
58338;SDS011;68636;52.704;6.536;2023-09-19T15:12:34;13.95;;;2.00;;
58338;SDS011;68636;52.704;6.536;2023-09-19T15:15:03;12.27;;;2.10;;
58338;SDS011;68636;52.704;6.536;2023-09-19T15:17:31;17.45;;;2.28;;
58338;SDS011;68636;52.704;6.536;2023-09-19T15:19:57;13.88;;;2.22;;
58338;SDS011;68636;52.704;6.536;2023-09-19T15:22:24;10.93;;;2.15;;
58338;SDS011;68636;52.704;6.536;2023-09-19T15:24:50;19.20;;;1.95;;
58338;SDS011;68636;52.704;6.536;2023-09-19T15:27:17;21.17;;;2.90;;
58338;SDS011;68636;52.704;6.536;2023-09-19T15:29:45;13.93;;;1.98;;
58338;SDS011;68636;52.704;6.536;2023-09-19T15:32:11;13.18;;;2.17;;
58338;SDS011;68636;52.704;6.536;2023-09-19T15:34:37;15.85;;;2.08;;
58338;SDS011;68636;52.704;6.536;2023-09-19T15:37:04;22.45;;;3.00;;
58338;SDS011;68636;52.704;6.536;2023-09-19T15:39:31;16.90;;;2.30;;
58338;SDS011;68636;52.704;6.536;2023-09-19T15:42:02;15.18;;;2.50;;
58338;SDS011;68636;52.704;6.536;2023-09-19T15:44:28;13.43;;;1.95;;